createdAt,value
2023-08-02T00:00:43.756Z,3.50
2023-08-02T00:03:11.614Z,3.30
2023-08-02T00:05:39.127Z,3.53
2023-08-02T00:08:06.862Z,3.53
2023-08-02T00:10:38.515Z,3.90
2023-08-02T00:13:06.456Z,3.67
2023-08-02T00:15:34.366Z,3.40
2023-08-02T00:18:04.186Z,3.53
2023-08-02T00:20:31.336Z,3.40
2023-08-02T00:22:58.703Z,3.43
2023-08-02T00:25:26.265Z,3.33
2023-08-02T00:27:53.439Z,4.00
2023-08-02T00:30:21.001Z,3.93
2023-08-02T00:32:50.021Z,3.40
2023-08-02T00:35:17.970Z,3.60
2023-08-02T00:37:46.332Z,3.40
2023-08-02T00:40:13.920Z,3.57
2023-08-02T00:42:41.476Z,3.67
2023-08-02T00:45:09.680Z,3.87
2023-08-02T00:47:37.894Z,3.67
2023-08-02T00:50:06.395Z,3.80
2023-08-02T00:52:34.569Z,3.47
2023-08-02T00:55:02.339Z,3.53
2023-08-02T00:57:30.805Z,3.70
2023-08-02T00:59:58.088Z,3.63
2023-08-02T01:02:26.355Z,3.80
2023-08-02T01:04:54.037Z,3.93
2023-08-02T01:07:42.410Z,3.60
2023-08-02T01:10:21.775Z,3.73
2023-08-02T01:12:52.961Z,3.63
2023-08-02T01:15:20.735Z,3.60
2023-08-02T01:17:52.011Z,3.73
2023-08-02T01:20:19.661Z,3.80
2023-08-02T01:22:47.036Z,3.70
2023-08-02T01:25:14.642Z,4.10
2023-08-02T01:27:48.388Z,4.00
2023-08-02T01:30:20.389Z,3.87
2023-08-02T01:32:48.532Z,3.37
2023-08-02T01:35:17.122Z,4.00
2023-08-02T01:37:44.877Z,3.70
2023-08-02T01:40:13.095Z,3.77
2023-08-02T01:42:40.825Z,3.60
2023-08-02T01:45:08.604Z,3.87
2023-08-02T01:47:36.189Z,3.60
2023-08-02T01:50:03.931Z,3.83
2023-08-02T01:52:31.708Z,3.77
2023-08-02T01:54:59.286Z,4.00
2023-08-02T01:57:26.466Z,4.20
2023-08-02T01:59:54.655Z,3.50
2023-08-02T02:02:22.340Z,4.10
2023-08-02T02:04:49.779Z,3.83
2023-08-02T02:07:16.944Z,3.83
2023-08-02T02:09:44.515Z,4.30
2023-08-02T02:12:11.900Z,4.00
2023-08-02T02:14:39.273Z,3.33
2023-08-02T02:17:06.834Z,4.07
2023-08-02T02:19:34.018Z,3.97
2023-08-02T02:22:01.427Z,4.83
2023-08-02T02:24:29.208Z,4.23
2023-08-02T02:26:56.925Z,3.70
2023-08-02T02:29:24.924Z,4.30
2023-08-02T02:31:52.521Z,4.37
2023-08-02T02:34:19.862Z,3.67
2023-08-02T02:36:48.226Z,4.13
2023-08-02T02:39:16.005Z,3.83
2023-08-02T02:41:43.584Z,4.47
2023-08-02T02:44:11.183Z,3.97
2023-08-02T02:46:38.585Z,4.37
2023-08-02T02:49:06.098Z,4.20
2023-08-02T02:51:33.690Z,3.93
2023-08-02T02:54:01.241Z,3.57
2023-08-02T02:56:28.608Z,4.00
2023-08-02T02:58:56.043Z,4.17
2023-08-02T03:01:23.402Z,4.00
2023-08-02T03:03:51.143Z,4.40
2023-08-02T03:06:18.543Z,4.23
2023-08-02T03:08:45.872Z,4.60
2023-08-02T03:11:13.048Z,4.70
2023-08-02T03:13:41.023Z,4.80
2023-08-02T03:16:08.447Z,4.10
2023-08-02T03:18:35.967Z,5.50
2023-08-02T03:21:03.535Z,4.43
2023-08-02T03:23:30.930Z,4.70
2023-08-02T03:25:58.293Z,4.37
2023-08-02T03:28:25.671Z,4.57
2023-08-02T03:30:55.944Z,4.70
2023-08-02T03:33:23.403Z,4.60
2023-08-02T03:35:51.204Z,4.80
2023-08-02T03:38:18.804Z,4.73
2023-08-02T03:40:46.120Z,4.57
2023-08-02T03:43:13.323Z,4.80
2023-08-02T03:45:41.082Z,4.50
2023-08-02T03:48:08.846Z,4.70
2023-08-02T03:50:36.228Z,4.10
2023-08-02T03:53:03.795Z,4.47
2023-08-02T03:55:31.359Z,4.40
2023-08-02T03:57:58.765Z,4.23
2023-08-02T04:00:26.307Z,4.40
2023-08-02T04:02:53.924Z,4.47
2023-08-02T04:05:21.254Z,5.13
2023-08-02T04:07:49.028Z,4.97
2023-08-02T04:10:16.200Z,5.00
2023-08-02T04:12:43.625Z,4.57
2023-08-02T04:15:11.551Z,4.27
2023-08-02T04:17:38.959Z,4.80
2023-08-02T04:20:07.152Z,5.17
2023-08-02T04:22:34.495Z,4.43
2023-08-02T04:25:02.232Z,5.00
2023-08-02T04:27:29.606Z,5.20
2023-08-02T04:29:56.795Z,5.03
2023-08-02T04:32:24.024Z,5.50
2023-08-02T04:34:51.547Z,5.33
2023-08-02T04:37:18.917Z,5.93
2023-08-02T04:39:46.472Z,5.63
2023-08-02T04:42:13.870Z,4.97
2023-08-02T04:44:41.218Z,5.33
2023-08-02T04:47:08.593Z,5.63
2023-08-02T04:49:36.979Z,5.17
2023-08-02T04:52:04.357Z,5.40
2023-08-02T04:54:32.364Z,5.00
2023-08-02T04:57:00.515Z,5.73
2023-08-02T04:59:28.062Z,5.13
2023-08-02T05:01:55.647Z,5.50
2023-08-02T05:04:23.269Z,5.73
2023-08-02T05:06:50.787Z,5.83
2023-08-02T05:09:19.151Z,5.57
2023-08-02T05:11:46.550Z,5.87
2023-08-02T05:14:13.896Z,5.40
2023-08-02T05:16:41.279Z,5.87
2023-08-02T05:19:08.445Z,5.67
2023-08-02T05:21:36.017Z,6.40
2023-08-02T05:24:03.594Z,5.67
2023-08-02T05:26:30.978Z,5.43
2023-08-02T05:28:58.137Z,6.70
2023-08-02T05:31:25.327Z,6.53
2023-08-02T05:33:52.480Z,6.10
2023-08-02T12:00:46.399Z,4.00
2023-08-02T12:03:49.320Z,3.90
2023-08-02T12:06:34.640Z,3.30
2023-08-02T12:12:22.440Z,4.13
2023-08-02T12:14:49.211Z,3.65
2023-08-02T12:17:18.039Z,3.70
2023-08-02T12:19:46.923Z,4.45
2023-08-02T12:22:15.735Z,4.30
2023-08-02T12:24:42.984Z,3.88
2023-08-02T12:27:13.746Z,4.00
2023-08-02T12:29:40.406Z,3.35
2023-08-02T12:32:07.658Z,4.22
2023-08-02T12:34:34.437Z,3.70
2023-08-02T12:37:01.124Z,3.88
2023-08-02T12:39:27.859Z,3.35
2023-08-02T12:41:54.602Z,4.13
2023-08-02T12:44:21.313Z,3.83
2023-08-02T12:46:48.613Z,3.78
2023-08-02T12:49:15.393Z,3.70
2023-08-02T12:51:42.127Z,4.00
2023-08-02T12:54:10.060Z,3.75
2023-08-02T12:56:36.711Z,3.88
2023-08-02T12:59:03.418Z,4.30
2023-08-02T13:01:30.236Z,3.75
2023-08-02T13:03:57.408Z,3.70
2023-08-02T13:06:24.300Z,3.90
2023-08-02T13:08:51.381Z,3.45
2023-08-02T13:11:18.151Z,3.70
2023-08-02T13:13:44.897Z,3.70
2023-08-02T13:16:11.701Z,3.67
2023-08-02T13:18:38.398Z,3.50
2023-08-02T13:21:05.253Z,3.88
2023-08-02T13:23:31.969Z,3.50
2023-08-02T13:25:58.729Z,3.65
2023-08-02T13:28:25.435Z,3.92
2023-08-02T13:30:52.287Z,4.18
2023-08-02T13:33:18.975Z,4.10
2023-08-02T13:35:45.705Z,3.85
2023-08-02T13:38:12.505Z,3.97
2023-08-02T13:40:39.173Z,3.80
2023-08-02T13:43:05.853Z,3.78
2023-08-02T13:45:32.682Z,3.90
2023-08-02T13:47:59.571Z,4.00
2023-08-02T13:50:26.610Z,4.05
2023-08-02T13:52:53.301Z,3.95
2023-08-02T13:55:20.327Z,4.47
2023-08-02T13:57:47.038Z,3.80
2023-08-02T14:00:14.179Z,3.95
2023-08-02T14:02:41.041Z,3.83
2023-08-02T14:05:07.924Z,4.32
2023-08-02T14:07:34.732Z,3.72
2023-08-02T14:10:01.475Z,4.10
2023-08-02T14:12:28.244Z,3.92
2023-08-02T14:14:54.899Z,4.50
2023-08-02T14:17:21.692Z,3.75
2023-08-02T14:19:48.738Z,4.00
2023-08-02T14:22:15.475Z,3.55
2023-08-02T14:24:42.228Z,3.97
2023-08-02T14:27:09.255Z,4.03
2023-08-02T14:29:36.045Z,3.85
2023-08-02T14:32:02.832Z,3.83
2023-08-02T14:34:29.576Z,3.65
2023-08-02T14:36:56.346Z,3.65
2023-08-02T14:39:23.268Z,3.78
2023-08-02T14:41:52.793Z,3.80
2023-08-02T14:44:19.439Z,3.78
2023-08-02T14:46:46.450Z,3.85
2023-08-02T14:49:13.432Z,3.88
2023-08-02T14:51:40.141Z,3.50
2023-08-02T14:54:13.174Z,3.42
2023-08-02T14:56:42.113Z,3.90
2023-08-02T14:59:09.718Z,4.15
2023-08-02T15:01:36.515Z,3.85
2023-08-02T15:04:03.539Z,3.88
2023-08-02T15:06:30.475Z,4.10
2023-08-02T15:08:57.300Z,4.57
2023-08-02T15:11:24.004Z,3.80
2023-08-02T15:13:50.713Z,4.00
2023-08-02T15:16:17.420Z,4.47
2023-08-02T15:18:44.243Z,3.90
2023-08-02T15:21:11.178Z,3.95
2023-08-02T15:23:38.101Z,4.60
2023-08-02T15:26:05.265Z,4.00
2023-08-02T15:28:32.215Z,3.97
2023-08-02T15:30:58.973Z,4.03
2023-08-02T15:33:25.808Z,4.47
2023-08-02T15:35:52.487Z,4.00
2023-08-02T15:38:19.213Z,3.95
2023-08-02T15:40:45.928Z,4.47
2023-08-02T15:43:12.555Z,3.75
2023-08-02T15:45:39.287Z,4.07
2023-08-02T15:48:06.192Z,4.50
2023-08-02T15:50:35.604Z,4.32
2023-08-02T15:53:03.546Z,3.67
2023-08-02T15:55:30.638Z,4.05
2023-08-02T15:57:57.496Z,3.88
2023-08-02T16:00:24.704Z,4.53
2023-08-02T16:02:51.604Z,4.50
2023-08-02T16:05:20.777Z,4.47
2023-08-02T16:07:47.669Z,4.57
2023-08-02T16:10:14.567Z,5.18
2023-08-02T16:12:41.397Z,4.53
2023-08-02T16:15:08.530Z,4.57
2023-08-02T16:17:35.192Z,4.38
2023-08-02T16:20:02.544Z,4.53
2023-08-02T16:22:29.499Z,5.50
2023-08-02T16:24:56.183Z,4.88
2023-08-02T16:27:22.925Z,4.53
2023-08-02T16:29:49.705Z,5.00
2023-08-02T16:32:16.491Z,5.05
2023-08-02T16:34:43.381Z,5.15
2023-08-02T16:37:10.101Z,4.80
2023-08-02T16:39:36.838Z,4.18
2023-08-02T16:42:03.594Z,4.93
2023-08-02T16:44:30.295Z,5.07
2023-08-02T16:46:57.022Z,6.63
2023-08-02T16:49:23.804Z,5.32
2023-08-02T16:51:50.489Z,6.38
2023-08-02T16:54:17.223Z,5.18
2023-08-02T16:56:43.962Z,15.70
2023-08-02T16:59:10.646Z,11.55
2023-08-02T17:01:37.514Z,7.68
2023-08-02T17:04:04.636Z,7.72
2023-08-02T17:06:33.442Z,7.07
2023-08-02T17:09:00.217Z,5.97
2023-08-02T17:11:26.960Z,12.50
2023-08-02T17:13:53.667Z,5.60
2023-08-02T17:16:20.530Z,5.30
2023-08-02T17:18:47.708Z,5.40
2023-08-02T17:21:14.438Z,4.82
2023-08-02T17:23:41.235Z,4.90
2023-08-02T17:26:08.138Z,5.20
2023-08-02T17:28:34.846Z,5.10
2023-08-02T17:31:02.674Z,4.93
2023-08-02T17:33:30.448Z,5.10
2023-08-02T17:35:57.207Z,5.35
2023-08-02T17:38:23.941Z,5.30
2023-08-02T17:40:50.814Z,4.97
2023-08-02T17:43:17.831Z,5.50
2023-08-02T17:45:44.904Z,5.10
2023-08-02T17:48:14.347Z,5.45
2023-08-02T17:50:41.115Z,5.15
2023-08-02T17:53:07.884Z,5.13
2023-08-02T17:55:34.662Z,5.75
2023-08-02T17:58:01.522Z,5.22
2023-08-02T18:00:34.085Z,5.35
2023-08-02T18:03:00.903Z,5.50
2023-08-02T18:05:27.696Z,4.85
2023-08-02T18:07:54.452Z,5.60
2023-08-02T18:10:22.116Z,5.72
2023-08-02T18:12:49.016Z,5.45
2023-08-02T18:15:15.807Z,5.65
2023-08-02T18:17:42.536Z,5.03
2023-08-02T18:20:09.832Z,5.45
2023-08-02T18:22:36.548Z,5.28
2023-08-02T18:25:03.726Z,5.78
2023-08-02T18:27:30.483Z,5.18
2023-08-02T18:29:59.041Z,5.68
2023-08-02T18:32:27.418Z,5.88
2023-08-02T18:34:54.072Z,5.35
2023-08-02T18:37:20.719Z,5.82
2023-08-02T18:39:47.375Z,5.65
2023-08-02T18:42:14.164Z,5.95
2023-08-02T18:44:40.996Z,6.35
2023-08-02T18:47:07.759Z,5.78
2023-08-02T18:49:34.445Z,5.55
2023-08-02T18:52:05.188Z,5.40
2023-08-02T18:54:32.094Z,5.18
2023-08-02T18:56:58.754Z,5.57
2023-08-02T18:59:25.512Z,5.50
2023-08-02T19:01:52.304Z,5.82
2023-08-02T19:04:19.193Z,5.55
2023-08-02T19:06:46.888Z,5.40
2023-08-02T19:09:14.058Z,5.32
2023-08-02T19:11:42.006Z,5.00
2023-08-02T19:14:11.633Z,4.72
2023-08-02T19:16:38.377Z,5.65
2023-08-02T19:19:16.007Z,5.82
2023-08-02T19:21:43.012Z,5.40
2023-08-02T19:24:10.103Z,5.35
2023-08-02T19:26:38.382Z,5.70
2023-08-02T19:29:05.186Z,6.00
2023-08-02T19:31:32.181Z,5.90
2023-08-02T19:33:58.982Z,6.28
2023-08-02T19:36:25.800Z,6.30
2023-08-02T19:38:52.578Z,5.85
2023-08-02T19:41:29.029Z,6.13
2023-08-02T19:43:58.870Z,5.75
2023-08-02T19:46:26.719Z,5.82
2023-08-02T19:48:53.584Z,5.70
2023-08-02T19:51:20.375Z,5.70
2023-08-02T19:53:47.169Z,5.23
2023-08-02T19:56:22.583Z,5.63
2023-08-02T19:58:49.963Z,5.63
2023-08-02T20:01:16.760Z,5.50
2023-08-02T20:03:43.784Z,5.93
2023-08-02T20:06:11.682Z,5.87
2023-08-02T20:08:38.486Z,5.30
2023-08-02T20:11:11.094Z,5.77
2023-08-02T20:13:38.861Z,5.37
2023-08-02T20:16:18.461Z,5.80
2023-08-02T20:18:46.801Z,5.53
2023-08-02T20:21:21.818Z,5.90
2023-08-02T20:24:03.796Z,5.80
2023-08-02T20:26:30.860Z,5.20
2023-08-02T20:28:57.916Z,5.70
2023-08-02T20:31:32.185Z,6.20
2023-08-02T20:33:59.754Z,5.47
2023-08-02T20:36:26.517Z,6.00
2023-08-02T20:38:56.373Z,5.93
2023-08-02T20:41:28.306Z,6.13
2023-08-02T20:43:57.377Z,5.97
2023-08-02T20:46:26.515Z,5.97
2023-08-02T20:48:58.303Z,5.73
2023-08-02T20:51:28.340Z,5.90
2023-08-02T20:53:57.547Z,5.90
2023-08-02T20:56:25.355Z,5.87
2023-08-02T20:58:52.165Z,5.87
2023-08-02T21:01:19.104Z,6.47
2023-08-02T21:03:46.805Z,5.60
2023-08-02T21:06:14.283Z,5.90
2023-08-02T21:08:46.948Z,6.07
2023-08-02T21:11:14.467Z,6.27
2023-08-02T21:13:41.308Z,5.77
2023-08-02T21:16:11.328Z,5.80
2023-08-02T21:18:41.773Z,5.97
2023-08-02T21:21:09.963Z,5.67
2023-08-02T21:23:40.275Z,5.53
2023-08-02T21:26:07.166Z,5.70
2023-08-02T21:28:34.091Z,5.77
2023-08-02T21:31:01.518Z,6.27
2023-08-02T21:33:32.574Z,5.73
2023-08-02T21:36:01.060Z,5.80
2023-08-02T21:38:32.127Z,6.33
2023-08-02T21:41:03.945Z,5.83
2023-08-02T21:43:33.659Z,5.63
2023-08-02T21:46:05.813Z,5.93
2023-08-02T21:48:44.746Z,6.27
2023-08-02T21:51:12.005Z,6.43
2023-08-02T21:53:38.880Z,6.37
2023-08-02T21:56:05.751Z,5.73
2023-08-02T21:58:36.121Z,5.33
2023-08-02T22:01:05.704Z,6.33
2023-08-02T22:03:32.610Z,5.93
2023-08-02T22:06:03.979Z,5.87
2023-08-02T22:08:32.045Z,6.67
2023-08-02T22:10:58.754Z,5.73
2023-08-02T22:13:25.844Z,6.03
2023-08-02T22:15:52.542Z,5.77
2023-08-02T22:18:19.221Z,5.77
2023-08-02T22:20:45.901Z,5.90
2023-08-02T22:23:12.780Z,5.80
2023-08-02T22:25:39.602Z,5.53
2023-08-02T22:28:06.783Z,5.83
2023-08-02T22:30:33.938Z,6.23
2023-08-02T22:33:00.806Z,5.23
2023-08-02T22:35:27.675Z,5.40
2023-08-02T22:37:54.341Z,5.90
2023-08-02T22:40:20.999Z,5.53
2023-08-02T22:42:47.692Z,5.33
2023-08-02T22:45:14.348Z,5.60
2023-08-02T22:47:41.108Z,6.13
2023-08-02T22:52:37.893Z,5.37
2023-08-02T22:55:04.935Z,5.70
2023-08-02T22:57:32.789Z,5.37
2023-08-02T22:59:59.985Z,5.80
2023-08-02T23:02:35.586Z,5.53
2023-08-02T23:05:11.501Z,5.83
2023-08-02T23:07:38.685Z,5.60
2023-08-02T23:10:32.478Z,5.93
2023-08-02T23:13:05.306Z,5.47
2023-08-02T23:15:32.213Z,5.77
2023-08-02T23:18:25.108Z,6.00
2023-08-02T23:20:52.440Z,6.00
2023-08-02T23:23:22.408Z,6.20
2023-08-02T23:25:51.836Z,5.43
2023-08-02T23:28:18.607Z,5.73
2023-08-02T23:30:45.318Z,5.70
2023-08-02T23:33:12.861Z,5.90
2023-08-02T23:35:40.580Z,6.20
2023-08-02T23:38:07.952Z,5.70
2023-08-02T23:40:34.766Z,5.97
2023-08-02T23:43:01.975Z,6.13
2023-08-02T23:45:28.891Z,5.90
2023-08-02T23:47:55.746Z,5.83
2023-08-02T23:50:22.566Z,6.10
2023-08-02T23:52:49.445Z,5.70
2023-08-02T23:55:16.245Z,6.20
2023-08-02T23:57:43.143Z,5.60
